createdAt,value
2018-08-22T00:00:33.584Z,2.37
2018-08-22T00:05:26.050Z,2.60
2018-08-22T00:10:18.974Z,2.35
2018-08-22T00:15:11.558Z,2.67
2018-08-22T00:20:04.125Z,2.80
2018-08-22T00:24:56.606Z,2.80
2018-08-22T00:29:49.088Z,2.70
2018-08-22T00:34:41.589Z,2.65
2018-08-22T00:39:34.576Z,2.65
2018-08-22T00:44:27.099Z,2.70
2018-08-22T00:49:19.569Z,2.80
2018-08-22T00:54:12.026Z,2.90
2018-08-22T00:59:04.530Z,2.70
2018-08-22T01:03:57.172Z,2.58
2018-08-22T01:08:49.608Z,2.60
2018-08-22T01:13:48.916Z,2.65
2018-08-22T01:18:41.369Z,2.60
2018-08-22T01:23:33.826Z,2.62
2018-08-22T01:28:26.278Z,3.00
2018-08-22T01:33:18.863Z,2.87
2018-08-22T01:38:11.424Z,2.33
2018-08-22T01:43:03.941Z,2.70
2018-08-22T01:47:56.419Z,2.70
2018-08-22T01:52:48.941Z,2.90
2018-08-22T01:57:41.458Z,3.22
2018-08-22T02:02:33.954Z,3.00
2018-08-22T02:07:26.451Z,2.83
2018-08-22T02:12:18.897Z,2.83
2018-08-22T02:17:11.403Z,2.70
2018-08-22T02:22:03.883Z,2.47
2018-08-22T02:26:56.515Z,2.70
2018-08-22T02:31:49.227Z,2.67
2018-08-22T02:36:41.635Z,2.97
2018-08-22T02:41:34.085Z,3.27
2018-08-22T02:46:26.672Z,2.70
2018-08-22T02:51:19.154Z,2.50
2018-08-22T02:56:11.606Z,3.33
2018-08-22T03:01:04.100Z,2.43
2018-08-22T03:05:56.575Z,2.80
2018-08-22T03:10:49.092Z,2.97
2018-08-22T03:15:41.596Z,3.13
2018-08-22T03:20:34.082Z,2.80
2018-08-22T03:25:26.588Z,2.93
2018-08-22T03:30:19.084Z,3.20
2018-08-22T03:35:11.561Z,3.37
2018-08-22T03:40:04.007Z,2.97
2018-08-22T03:44:56.439Z,3.13
2018-08-22T03:49:48.956Z,2.98
2018-08-22T03:54:41.400Z,2.80
2018-08-22T03:59:33.906Z,3.25
2018-08-22T04:04:26.495Z,3.10
2018-08-22T04:09:19.024Z,3.17
2018-08-22T04:14:11.503Z,2.70
2018-08-22T04:19:04.209Z,3.03
2018-08-22T04:23:56.735Z,3.75
2018-08-22T04:28:49.245Z,4.97
2018-08-22T04:33:41.801Z,3.30
2018-08-22T04:38:34.297Z,3.93
2018-08-22T04:43:26.795Z,3.20
2018-08-22T04:48:19.338Z,3.23
2018-08-22T04:53:11.836Z,4.00
2018-08-22T04:58:04.481Z,4.17
2018-08-22T05:02:57.039Z,3.80
2018-08-22T05:07:49.544Z,3.65
2018-08-22T05:12:42.095Z,4.07
2018-08-22T05:17:34.935Z,4.30
2018-08-22T05:22:27.504Z,3.77
2018-08-22T05:27:19.992Z,4.20
2018-08-22T05:32:12.997Z,4.17
2018-08-22T05:37:05.579Z,4.30
2018-08-22T05:41:58.017Z,4.60
2018-08-22T05:46:50.613Z,4.40
2018-08-22T05:51:43.178Z,3.93
2018-08-22T05:56:35.731Z,4.43
2018-08-22T06:01:28.308Z,4.47
2018-08-22T06:06:20.850Z,6.23
2018-08-22T06:11:13.338Z,4.67
2018-08-22T06:16:06.790Z,4.40
2018-08-22T06:20:59.411Z,4.77
2018-08-22T06:25:51.950Z,5.07
2018-08-22T06:30:44.586Z,4.50
2018-08-22T06:35:37.255Z,4.33
2018-08-22T06:40:29.815Z,4.00
2018-08-22T06:45:22.357Z,3.73
2018-08-22T06:50:14.922Z,3.80
2018-08-22T06:55:07.491Z,3.33
2018-08-22T07:00:00.090Z,3.83
2018-08-22T07:04:52.605Z,3.50
2018-08-22T07:09:45.135Z,3.87
2018-08-22T07:14:37.663Z,3.87
2018-08-22T07:19:30.216Z,3.47
2018-08-22T07:24:22.897Z,3.80
2018-08-22T07:29:15.436Z,3.57
2018-08-22T07:34:07.912Z,3.57
2018-08-22T07:39:01.213Z,3.57
2018-08-22T07:43:53.856Z,3.33
2018-08-22T07:48:46.490Z,3.47
2018-08-22T07:53:39.043Z,3.07
2018-08-22T07:58:31.588Z,3.47
2018-08-22T08:03:24.225Z,2.85
2018-08-22T08:08:16.909Z,2.87
2018-08-22T08:13:29.180Z,3.10
2018-08-22T08:18:21.744Z,3.33
2018-08-22T08:23:14.467Z,3.20
2018-08-22T08:28:06.944Z,2.80
2018-08-22T08:32:59.425Z,2.70
2018-08-22T08:37:51.994Z,2.90
2018-08-22T08:42:44.543Z,3.00
2018-08-22T08:47:37.133Z,2.40
2018-08-22T08:52:30.927Z,2.50
2018-08-22T08:57:24.530Z,2.20
2018-08-22T09:02:17.067Z,3.08
2018-08-22T09:07:09.583Z,1.97
2018-08-22T09:12:02.441Z,1.90
2018-08-22T09:16:55.545Z,3.03
2018-08-22T09:21:48.409Z,1.80
2018-08-22T09:26:41.484Z,2.10
2018-08-22T09:31:34.107Z,2.03
2018-08-22T09:36:26.815Z,1.82
2018-08-22T09:41:19.626Z,1.70
2018-08-22T09:46:12.145Z,2.20
2018-08-22T09:51:05.116Z,1.90
2018-08-22T09:55:57.623Z,2.30
2018-08-22T10:01:21.608Z,1.80
2018-08-22T10:06:27.846Z,2.20
2018-08-22T10:11:20.358Z,2.50
2018-08-22T10:16:12.849Z,2.10
2018-08-22T10:21:05.374Z,2.00
2018-08-22T10:25:57.978Z,1.80
2018-08-22T10:30:53.431Z,1.83
2018-08-22T10:35:45.931Z,2.33
2018-08-22T10:40:38.524Z,2.47
2018-08-22T10:45:31.288Z,1.77
2018-08-22T10:50:24.107Z,4.50
2018-08-22T10:55:16.719Z,2.50
2018-08-22T11:00:10.135Z,2.37
2018-08-22T11:05:02.683Z,2.07
2018-08-22T11:09:55.321Z,2.30
2018-08-22T11:14:47.936Z,4.20
2018-08-22T11:19:40.640Z,2.20
2018-08-22T11:24:50.871Z,1.80
2018-08-22T11:30:01.184Z,1.90
2018-08-22T11:34:52.501Z,2.00
2018-08-22T11:39:46.573Z,2.27
2018-08-22T11:44:39.178Z,8.83
2018-08-22T11:49:32.203Z,3.80
2018-08-22T11:54:24.776Z,2.10
2018-08-22T11:59:17.603Z,2.77
2018-08-22T12:04:10.299Z,2.13
2018-08-22T12:09:04.419Z,1.80
2018-08-22T12:13:57.242Z,2.00
2018-08-22T12:18:49.723Z,2.00
2018-08-22T12:23:42.337Z,1.90
2018-08-22T12:28:34.859Z,2.50
2018-08-22T12:33:27.451Z,2.60
2018-08-22T12:38:19.973Z,2.17
2018-08-22T12:43:12.485Z,2.03
2018-08-22T12:48:05.144Z,3.67
2018-08-22T12:52:57.680Z,1.97
2018-08-22T12:57:50.201Z,2.00
2018-08-22T13:02:42.894Z,1.83
2018-08-22T13:07:35.454Z,2.30
2018-08-22T13:12:28.611Z,2.60
2018-08-22T13:17:21.208Z,2.13
2018-08-22T13:22:14.136Z,1.92
2018-08-22T13:27:06.656Z,1.90
2018-08-22T13:31:59.276Z,1.77
2018-08-22T13:36:51.806Z,1.80
2018-08-22T13:41:44.449Z,2.53
2018-08-22T13:46:36.919Z,2.20
2018-08-22T13:51:29.494Z,2.00
2018-08-22T13:56:22.096Z,1.50
2018-08-22T14:01:14.777Z,2.77
2018-08-22T14:06:16.074Z,1.90
2018-08-22T14:11:08.479Z,2.13
2018-08-22T14:16:01.043Z,1.92
2018-08-22T14:20:53.693Z,2.33
2018-08-22T14:25:46.236Z,2.10
2018-08-22T14:30:38.742Z,2.20
2018-08-22T14:35:31.194Z,1.87
2018-08-22T14:40:23.705Z,2.07
2018-08-22T14:45:16.933Z,2.07
2018-08-22T14:50:09.600Z,1.87
2018-08-22T14:55:02.797Z,4.57
2018-08-22T14:59:55.351Z,2.02
2018-08-22T15:04:47.869Z,2.03
2018-08-22T15:09:40.366Z,2.00
2018-08-22T15:14:32.896Z,2.17
2018-08-22T15:19:25.563Z,2.00
2018-08-22T15:24:17.996Z,2.10
2018-08-22T15:29:10.484Z,2.10
2018-08-22T15:34:02.983Z,1.90
2018-08-22T15:38:55.396Z,2.17
2018-08-22T15:43:48.154Z,1.87
2018-08-22T15:48:40.720Z,1.80
2018-08-22T15:53:33.435Z,2.17
2018-08-22T15:58:25.940Z,1.97
2018-08-22T16:03:18.787Z,1.95
2018-08-22T16:08:11.915Z,3.30
2018-08-22T16:13:05.615Z,1.87
2018-08-22T16:17:58.414Z,1.90
2018-08-22T16:22:50.900Z,2.17
2018-08-22T16:27:48.848Z,2.10
2018-08-22T16:32:41.329Z,1.87
2018-08-22T16:37:33.836Z,2.10
2018-08-22T16:42:30.176Z,2.13
2018-08-22T16:47:27.415Z,2.00
2018-08-22T16:52:20.057Z,2.30
2018-08-22T16:57:12.542Z,2.00
2018-08-22T17:02:05.666Z,2.00
2018-08-22T17:07:02.831Z,2.07
2018-08-22T17:11:55.256Z,2.20
2018-08-22T17:16:47.762Z,2.40
2018-08-22T17:21:40.309Z,2.85
2018-08-22T17:26:32.804Z,2.80
2018-08-22T17:31:26.674Z,2.37
2018-08-22T17:36:19.286Z,2.73
2018-08-22T17:41:11.983Z,2.40
2018-08-22T17:46:07.507Z,2.70
2018-08-22T17:51:00.139Z,3.67
2018-08-22T17:55:52.624Z,2.23
2018-08-22T18:00:45.135Z,4.33
2018-08-22T18:05:37.659Z,2.70
2018-08-22T18:10:33.325Z,2.50
2018-08-22T18:15:25.865Z,2.47
2018-08-22T18:20:18.507Z,3.30
2018-08-22T18:25:10.992Z,3.03
2018-08-22T18:30:03.547Z,5.43
2018-08-22T18:35:05.184Z,4.70
2018-08-22T18:40:10.319Z,4.70
2018-08-22T18:45:02.832Z,2.72
2018-08-22T18:49:55.343Z,4.10
2018-08-22T18:54:47.974Z,4.97
2018-08-22T18:59:40.447Z,5.30
2018-08-22T19:04:32.904Z,5.83
2018-08-22T19:09:25.363Z,4.27
2018-08-22T19:14:48.366Z,4.57
2018-08-22T19:19:43.676Z,5.23
2018-08-22T19:24:36.136Z,4.20
2018-08-22T19:29:28.685Z,4.92
2018-08-22T19:34:21.244Z,3.50
2018-08-22T19:39:13.744Z,4.10
2018-08-22T19:44:06.220Z,3.60
2018-08-22T19:49:00.249Z,3.77
2018-08-22T19:54:03.491Z,4.42
2018-08-22T19:58:56.309Z,4.20
2018-08-22T20:03:52.919Z,3.90
2018-08-22T20:08:45.371Z,3.70
2018-08-22T20:13:48.879Z,4.10
2018-08-22T20:18:41.447Z,4.20
2018-08-22T20:23:34.226Z,5.83
2018-08-22T20:28:26.769Z,4.37
2018-08-22T20:33:19.312Z,4.73
2018-08-22T20:38:12.628Z,5.60
2018-08-22T20:43:07.476Z,4.80
2018-08-22T20:48:05.821Z,4.43
2018-08-22T20:53:00.416Z,4.13
2018-08-22T20:57:52.928Z,3.98
2018-08-22T21:02:45.452Z,3.73
2018-08-22T21:07:38.668Z,4.30
2018-08-22T21:12:31.106Z,3.95
2018-08-22T21:17:23.618Z,4.15
2018-08-22T21:22:27.427Z,4.30
2018-08-22T21:27:19.891Z,4.50
2018-08-22T21:32:12.353Z,4.33
2018-08-22T21:37:20.983Z,4.22
2018-08-22T21:42:15.587Z,3.87
2018-08-22T21:47:08.127Z,4.70
2018-08-22T21:52:00.958Z,4.40
2018-08-22T21:56:53.817Z,4.80
2018-08-22T22:01:52.060Z,4.77
2018-08-22T22:06:44.736Z,4.30
2018-08-22T22:11:37.224Z,4.10
2018-08-22T22:16:30.733Z,4.47
2018-08-22T22:21:23.232Z,4.50
2018-08-22T22:26:17.064Z,4.30
2018-08-22T22:31:11.403Z,4.27
2018-08-22T22:36:03.919Z,4.87
2018-08-22T22:40:56.420Z,4.50
2018-08-22T22:45:49.240Z,4.50
2018-08-22T22:50:41.689Z,4.97
2018-08-22T22:55:34.215Z,4.40
2018-08-22T23:00:28.963Z,4.50
2018-08-22T23:05:21.486Z,4.50
2018-08-22T23:10:14.589Z,4.47
2018-08-22T23:15:09.796Z,4.73
2018-08-22T23:20:31.676Z,4.50
2018-08-22T23:25:24.493Z,5.00
2018-08-22T23:30:24.212Z,4.70
2018-08-22T23:35:25.966Z,4.80
2018-08-22T23:40:18.782Z,4.53
2018-08-22T23:45:11.642Z,5.10
2018-08-22T23:50:04.341Z,4.90
2018-08-22T23:54:56.825Z,5.57
2018-08-22T23:59:49.282Z,4.83
